sensor_id;sensor_type;location;lat;lon;timestamp;pressure;altitude;pressure_sealevel;temperature;humidity
40315;BME280;26021;45.640;11.302;2022-12-20T00:02:00;100174.19;;;0.94;100.00
40315;BME280;26021;45.640;11.302;2022-12-20T00:04:25;100190.34;;;1.04;100.00
40315;BME280;26021;45.640;11.302;2022-12-20T00:06:50;100154.50;;;0.68;100.00
40315;BME280;26021;45.640;11.302;2022-12-20T00:09:16;100179.63;;;0.91;100.00
40315;BME280;26021;45.640;11.302;2022-12-20T00:11:41;100183.53;;;1.00;100.00
40315;BME280;26021;45.640;11.302;2022-12-20T00:14:08;100106.59;;;0.46;100.00
40315;BME280;26021;45.640;11.302;2022-12-20T00:16:35;100180.22;;;0.96;100.00
40315;BME280;26021;45.640;11.302;2022-12-20T00:19:02;100177.31;;;0.85;100.00
40315;BME280;26021;45.640;11.302;2022-12-20T00:21:29;100176.41;;;0.86;100.00
40315;BME280;26021;45.640;11.302;2022-12-20T00:23:56;100178.59;;;0.93;100.00
40315;BME280;26021;45.640;11.302;2022-12-20T00:26:29;100159.91;;;0.82;100.00
40315;BME280;26021;45.640;11.302;2022-12-20T00:28:55;100096.72;;;0.34;100.00
40315;BME280;26021;45.640;11.302;2022-12-20T00:31:22;100037.06;;;0.01;100.00
40315;BME280;26021;45.640;11.302;2022-12-20T00:33:49;100172.06;;;1.01;100.00
40315;BME280;26021;45.640;11.302;2022-12-20T00:36:16;100170.38;;;1.00;100.00
40315;BME280;26021;45.640;11.302;2022-12-20T00:38:49;100101.59;;;0.57;100.00
40315;BME280;26021;45.640;11.302;2022-12-20T00:41:19;100170.13;;;1.04;100.00
40315;BME280;26021;45.640;11.302;2022-12-20T00:43:45;100165.88;;;1.17;100.00
40315;BME280;26021;45.640;11.302;2022-12-20T00:46:12;100167.91;;;0.97;100.00
40315;BME280;26021;45.640;11.302;2022-12-20T00:48:39;100173.34;;;1.09;100.00
40315;BME280;26021;45.640;11.302;2022-12-20T00:51:07;100168.06;;;1.09;100.00
40315;BME280;26021;45.640;11.302;2022-12-20T00:53:34;100172.16;;;0.99;100.00
40315;BME280;26021;45.640;11.302;2022-12-20T00:55:59;100176.31;;;1.03;100.00
40315;BME280;26021;45.640;11.302;2022-12-20T00:58:25;100140.13;;;0.91;100.00
40315;BME280;26021;45.640;11.302;2022-12-20T01:00:51;100149.81;;;0.90;100.00
40315;BME280;26021;45.640;11.302;2022-12-20T01:03:17;100165.44;;;1.09;100.00
40315;BME280;26021;45.640;11.302;2022-12-20T01:05:50;100118.91;;;0.61;100.00
40315;BME280;26021;45.640;11.302;2022-12-20T01:08:17;100127.28;;;0.85;100.00
40315;BME280;26021;45.640;11.302;2022-12-20T01:10:42;100171.13;;;1.17;100.00
40315;BME280;26021;45.640;11.302;2022-12-20T01:13:08;100169.34;;;1.18;100.00
40315;BME280;26021;45.640;11.302;2022-12-20T01:15:33;100158.88;;;1.32;100.00
40315;BME280;26021;45.640;11.302;2022-12-20T01:17:59;100167.81;;;1.14;100.00
40315;BME280;26021;45.640;11.302;2022-12-20T01:20:24;100170.53;;;1.12;100.00
40315;BME280;26021;45.640;11.302;2022-12-20T01:22:50;100150.75;;;0.89;100.00
40315;BME280;26021;45.640;11.302;2022-12-20T01:25:15;100164.94;;;1.03;100.00
40315;BME280;26021;45.640;11.302;2022-12-20T01:27:41;100164.41;;;1.12;100.00
40315;BME280;26021;45.640;11.302;2022-12-20T01:30:07;100175.63;;;1.00;100.00
40315;BME280;26021;45.640;11.302;2022-12-20T01:32:32;100166.47;;;0.91;100.00
40315;BME280;26021;45.640;11.302;2022-12-20T01:34:58;100169.00;;;0.92;100.00
40315;BME280;26021;45.640;11.302;2022-12-20T01:37:23;100161.69;;;1.13;100.00
40315;BME280;26021;45.640;11.302;2022-12-20T01:39:49;100138.59;;;1.03;100.00
40315;BME280;26021;45.640;11.302;2022-12-20T01:42:14;100159.06;;;1.13;100.00
40315;BME280;26021;45.640;11.302;2022-12-20T01:47:05;100147.69;;;0.97;100.00
40315;BME280;26021;45.640;11.302;2022-12-20T01:49:35;100110.16;;;0.60;100.00
40315;BME280;26021;45.640;11.302;2022-12-20T01:52:22;100140.88;;;0.93;100.00
40315;BME280;26021;45.640;11.302;2022-12-20T01:57:43;100135.00;;;1.04;100.00
40315;BME280;26021;45.640;11.302;2022-12-20T02:00:11;100129.56;;;1.22;100.00
40315;BME280;26021;45.640;11.302;2022-12-20T02:02:37;100130.75;;;1.17;100.00
40315;BME280;26021;45.640;11.302;2022-12-20T02:05:03;100128.47;;;1.11;100.00
40315;BME280;26021;45.640;11.302;2022-12-20T02:07:30;100123.63;;;1.19;100.00
40315;BME280;26021;45.640;11.302;2022-12-20T02:10:00;100120.38;;;1.14;100.00
40315;BME280;26021;45.640;11.302;2022-12-20T02:12:31;100114.09;;;1.16;100.00
40315;BME280;26021;45.640;11.302;2022-12-20T02:31:39;100077.38;;;1.13;100.00
40315;BME280;26021;45.640;11.302;2022-12-20T02:34:07;100063.03;;;1.03;100.00
40315;BME280;26021;45.640;11.302;2022-12-20T02:36:34;100085.63;;;1.07;100.00
40315;BME280;26021;45.640;11.302;2022-12-20T02:39:00;100064.75;;;0.88;100.00
40315;BME280;26021;45.640;11.302;2022-12-20T02:41:29;100057.25;;;0.97;100.00
40315;BME280;26021;45.640;11.302;2022-12-20T02:44:06;100090.22;;;1.04;100.00
40315;BME280;26021;45.640;11.302;2022-12-20T02:46:54;100088.91;;;1.26;100.00
40315;BME280;26021;45.640;11.302;2022-12-20T02:49:24;100081.38;;;1.20;100.00
40315;BME280;26021;45.640;11.302;2022-12-20T02:51:53;100027.97;;;0.87;100.00
40315;BME280;26021;45.640;11.302;2022-12-20T02:54:20;100078.16;;;1.15;100.00
40315;BME280;26021;45.640;11.302;2022-12-20T02:57:07;100076.34;;;1.16;100.00
40315;BME280;26021;45.640;11.302;2022-12-20T03:00:30;100073.72;;;1.16;100.00
40315;BME280;26021;45.640;11.302;2022-12-20T03:02:30;100005.19;;;0.70;100.00
40315;BME280;26021;45.640;11.302;2022-12-20T03:05:16;100063.66;;;0.92;100.00
40315;BME280;26021;45.640;11.302;2022-12-20T03:07:42;100079.25;;;1.11;100.00
40315;BME280;26021;45.640;11.302;2022-12-20T03:10:08;100067.72;;;0.98;100.00
40315;BME280;26021;45.640;11.302;2022-12-20T03:12:33;100053.09;;;0.92;100.00
40315;BME280;26021;45.640;11.302;2022-12-20T03:14:59;100062.44;;;0.98;100.00
40315;BME280;26021;45.640;11.302;2022-12-20T03:17:24;100063.88;;;1.04;100.00
40315;BME280;26021;45.640;11.302;2022-12-20T03:19:49;100068.47;;;1.00;100.00
40315;BME280;26021;45.640;11.302;2022-12-20T03:22:15;100043.06;;;0.99;100.00
40315;BME280;26021;45.640;11.302;2022-12-20T03:24:40;100052.16;;;0.93;100.00
40315;BME280;26021;45.640;11.302;2022-12-20T03:27:06;100049.94;;;1.02;100.00
40315;BME280;26021;45.640;11.302;2022-12-20T03:29:31;100054.28;;;1.03;100.00
40315;BME280;26021;45.640;11.302;2022-12-20T03:31:57;100058.84;;;1.15;100.00
40315;BME280;26021;45.640;11.302;2022-12-20T03:34:22;100053.44;;;0.86;100.00
40315;BME280;26021;45.640;11.302;2022-12-20T03:36:47;100051.41;;;0.91;100.00
40315;BME280;26021;45.640;11.302;2022-12-20T03:39:14;100057.44;;;0.78;100.00
40315;BME280;26021;45.640;11.302;2022-12-20T03:41:40;100057.94;;;1.00;100.00
40315;BME280;26021;45.640;11.302;2022-12-20T03:44:05;100056.59;;;0.77;100.00
40315;BME280;26021;45.640;11.302;2022-12-20T03:46:31;100049.47;;;0.79;100.00
40315;BME280;26021;45.640;11.302;2022-12-20T03:48:56;100059.91;;;0.81;100.00
40315;BME280;26021;45.640;11.302;2022-12-20T03:51:22;100059.31;;;0.91;100.00
40315;BME280;26021;45.640;11.302;2022-12-20T03:53:47;100056.69;;;0.91;100.00
40315;BME280;26021;45.640;11.302;2022-12-20T03:56:12;100062.63;;;0.95;100.00
40315;BME280;26021;45.640;11.302;2022-12-20T03:58:38;100059.91;;;0.81;100.00
40315;BME280;26021;45.640;11.302;2022-12-20T04:01:19;100058.19;;;0.95;100.00
40315;BME280;26021;45.640;11.302;2022-12-20T04:03:45;100059.22;;;0.93;100.00
40315;BME280;26021;45.640;11.302;2022-12-20T04:06:10;100064.81;;;0.71;100.00
40315;BME280;26021;45.640;11.302;2022-12-20T04:08:35;100066.13;;;0.80;100.00
40315;BME280;26021;45.640;11.302;2022-12-20T04:11:01;100056.00;;;0.88;100.00
40315;BME280;26021;45.640;11.302;2022-12-20T04:13:52;100067.28;;;0.90;100.00
40315;BME280;26021;45.640;11.302;2022-12-20T04:16:21;100064.41;;;0.79;100.00
40315;BME280;26021;45.640;11.302;2022-12-20T04:18:47;99986.69;;;0.56;100.00
40315;BME280;26021;45.640;11.302;2022-12-20T04:21:13;100055.38;;;1.14;100.00
40315;BME280;26021;45.640;11.302;2022-12-20T04:23:41;100028.88;;;1.02;100.00
40315;BME280;26021;45.640;11.302;2022-12-20T04:26:08;100048.09;;;0.88;100.00
40315;BME280;26021;45.640;11.302;2022-12-20T04:28:34;99956.72;;;0.43;100.00
40315;BME280;26021;45.640;11.302;2022-12-20T04:31:00;100053.59;;;0.99;100.00
40315;BME280;26021;45.640;11.302;2022-12-20T04:33:26;100045.75;;;1.13;100.00
40315;BME280;26021;45.640;11.302;2022-12-20T04:35:52;100053.09;;;0.92;100.00
40315;BME280;26021;45.640;11.302;2022-12-20T04:38:19;100045.47;;;0.88;100.00
40315;BME280;26021;45.640;11.302;2022-12-20T04:40:50;99967.69;;;0.35;100.00
40315;BME280;26021;45.640;11.302;2022-12-20T04:43:17;99961.13;;;0.58;100.00
40315;BME280;26021;45.640;11.302;2022-12-20T04:45:43;100002.38;;;0.73;100.00
40315;BME280;26021;45.640;11.302;2022-12-20T04:48:10;100041.28;;;1.00;100.00
40315;BME280;26021;45.640;11.302;2022-12-20T04:50:35;100008.94;;;0.82;100.00
40315;BME280;26021;45.640;11.302;2022-12-20T04:53:01;100031.06;;;1.09;100.00
40315;BME280;26021;45.640;11.302;2022-12-20T04:55:45;100040.34;;;1.01;100.00
40315;BME280;26021;45.640;11.302;2022-12-20T04:58:10;100042.41;;;0.95;100.00
40315;BME280;26021;45.640;11.302;2022-12-20T05:00:36;100038.88;;;1.11;100.00
40315;BME280;26021;45.640;11.302;2022-12-20T05:03:01;100033.78;;;1.08;100.00
40315;BME280;26021;45.640;11.302;2022-12-20T05:05:27;99828.75;;;-0.06;100.00
40315;BME280;26021;45.640;11.302;2022-12-20T05:07:53;100035.72;;;1.20;100.00
40315;BME280;26021;45.640;11.302;2022-12-20T05:10:19;100038.94;;;1.25;100.00
40315;BME280;26021;45.640;11.302;2022-12-20T05:12:44;100045.06;;;1.25;100.00
40315;BME280;26021;45.640;11.302;2022-12-20T05:15:11;100041.28;;;1.30;100.00
40315;BME280;26021;45.640;11.302;2022-12-20T05:17:36;100026.78;;;1.22;100.00
40315;BME280;26021;45.640;11.302;2022-12-20T05:20:03;100029.91;;;1.29;100.00
40315;BME280;26021;45.640;11.302;2022-12-20T05:22:29;100020.25;;;1.14;100.00
40315;BME280;26021;45.640;11.302;2022-12-20T05:25:13;99879.75;;;0.23;100.00
40315;BME280;26021;45.640;11.302;2022-12-20T05:27:57;100035.13;;;1.15;100.00
40315;BME280;26021;45.640;11.302;2022-12-20T05:30:23;100015.22;;;1.25;100.00
40315;BME280;26021;45.640;11.302;2022-12-20T05:32:49;100028.06;;;1.15;100.00
40315;BME280;26021;45.640;11.302;2022-12-20T05:35:15;100033.16;;;1.18;100.00
40315;BME280;26021;45.640;11.302;2022-12-20T05:37:40;99969.56;;;0.94;100.00
40315;BME280;26021;45.640;11.302;2022-12-20T05:40:06;100011.56;;;1.27;100.00
40315;BME280;26021;45.640;11.302;2022-12-20T05:42:32;100013.72;;;1.35;100.00
40315;BME280;26021;45.640;11.302;2022-12-20T05:44:58;100018.72;;;1.40;100.00
40315;BME280;26021;45.640;11.302;2022-12-20T05:47:25;99827.28;;;0.36;100.00
40315;BME280;26021;45.640;11.302;2022-12-20T05:49:50;100015.03;;;1.58;100.00
40315;BME280;26021;45.640;11.302;2022-12-20T05:52:16;99998.56;;;1.54;100.00
40315;BME280;26021;45.640;11.302;2022-12-20T05:54:41;100011.72;;;1.54;100.00
40315;BME280;26021;45.640;11.302;2022-12-20T05:57:06;100006.72;;;1.50;100.00
40315;BME280;26021;45.640;11.302;2022-12-20T05:59:32;100006.22;;;1.43;100.00
40315;BME280;26021;45.640;11.302;2022-12-20T06:01:58;100016.34;;;1.51;100.00
40315;BME280;26021;45.640;11.302;2022-12-20T06:04:23;100013.53;;;1.54;100.00
40315;BME280;26021;45.640;11.302;2022-12-20T06:06:49;99954.13;;;1.18;100.00
40315;BME280;26021;45.640;11.302;2022-12-20T06:09:14;100002.59;;;1.60;100.00
40315;BME280;26021;45.640;11.302;2022-12-20T06:11:39;100013.53;;;1.54;100.00
40315;BME280;26021;45.640;11.302;2022-12-20T06:14:05;100004.94;;;1.50;100.00
40315;BME280;26021;45.640;11.302;2022-12-20T06:16:30;99999.88;;;1.62;100.00
40315;BME280;26021;45.640;11.302;2022-12-20T06:18:56;100003.53;;;1.59;100.00
40315;BME280;26021;45.640;11.302;2022-12-20T06:21:22;99995.41;;;1.48;100.00
40315;BME280;26021;45.640;11.302;2022-12-20T06:23:47;99996.66;;;1.56;100.00
40315;BME280;26021;45.640;11.302;2022-12-20T06:26:13;99932.75;;;1.23;100.00
40315;BME280;26021;45.640;11.302;2022-12-20T06:28:38;99994.41;;;1.50;100.00
40315;BME280;26021;45.640;11.302;2022-12-20T06:31:08;99994.50;;;1.63;100.00
40315;BME280;26021;45.640;11.302;2022-12-20T06:33:35;100004.25;;;1.47;100.00
40315;BME280;26021;45.640;11.302;2022-12-20T06:36:00;100002.50;;;1.62;100.00
40315;BME280;26021;45.640;11.302;2022-12-20T06:38:26;99995.25;;;1.65;100.00
40315;BME280;26021;45.640;11.302;2022-12-20T06:40:52;99989.16;;;1.79;100.00
40315;BME280;26021;45.640;11.302;2022-12-20T06:43:17;99916.56;;;1.29;100.00
40315;BME280;26021;45.640;11.302;2022-12-20T06:45:43;99965.88;;;1.71;100.00
40315;BME280;26021;45.640;11.302;2022-12-20T06:48:09;99991.13;;;1.89;100.00
40315;BME280;26021;45.640;11.302;2022-12-20T06:50:34;99998.38;;;1.72;100.00
40315;BME280;26021;45.640;11.302;2022-12-20T06:53:00;99985.28;;;1.56;100.00
40315;BME280;26021;45.640;11.302;2022-12-20T06:55:25;99993.28;;;1.69;100.00
40315;BME280;26021;45.640;11.302;2022-12-20T06:57:51;99988.28;;;1.64;100.00
40315;BME280;26021;45.640;11.302;2022-12-20T07:00:16;99937.47;;;1.18;100.00
40315;BME280;26021;45.640;11.302;2022-12-20T07:02:42;99908.28;;;1.21;100.00
40315;BME280;26021;45.640;11.302;2022-12-20T07:05:09;100000.25;;;1.70;100.00
40315;BME280;26021;45.640;11.302;2022-12-20T07:07:35;99999.78;;;1.77;100.00
40315;BME280;26021;45.640;11.302;2022-12-20T07:10:00;100001.00;;;1.72;100.00
40315;BME280;26021;45.640;11.302;2022-12-20T07:12:26;99937.47;;;1.32;100.00
40315;BME280;26021;45.640;11.302;2022-12-20T07:14:51;99976.81;;;1.79;100.00
40315;BME280;26021;45.640;11.302;2022-12-20T07:17:17;99989.69;;;1.55;100.00
40315;BME280;26021;45.640;11.302;2022-12-20T07:19:42;100006.19;;;1.73;100.00
40315;BME280;26021;45.640;11.302;2022-12-20T07:22:08;100008.94;;;1.86;100.00
40315;BME280;26021;45.640;11.302;2022-12-20T07:24:33;100006.41;;;1.99;100.00
40315;BME280;26021;45.640;11.302;2022-12-20T07:26:59;100010.91;;;1.82;100.00
40315;BME280;26021;45.640;11.302;2022-12-20T07:29:25;99940.03;;;1.48;100.00
40315;BME280;26021;45.640;11.302;2022-12-20T07:31:51;99934.94;;;1.31;100.00
40315;BME280;26021;45.640;11.302;2022-12-20T07:34:17;99984.06;;;1.76;100.00
40315;BME280;26021;45.640;11.302;2022-12-20T07:36:43;100014.31;;;1.99;100.00
40315;BME280;26021;45.640;11.302;2022-12-20T07:39:09;99926.19;;;1.44;100.00
40315;BME280;26021;45.640;11.302;2022-12-20T07:41:34;100014.69;;;2.07;100.00
40315;BME280;26021;45.640;11.302;2022-12-20T07:44:00;100011.84;;;2.10;100.00
40315;BME280;26021;45.640;11.302;2022-12-20T07:46:26;99996.97;;;1.95;100.00
40315;BME280;26021;45.640;11.302;2022-12-20T07:48:51;100009.41;;;2.07;100.00
40315;BME280;26021;45.640;11.302;2022-12-20T07:51:21;100007.97;;;2.15;100.00
40315;BME280;26021;45.640;11.302;2022-12-20T07:53:52;100008.09;;;2.14;100.00
40315;BME280;26021;45.640;11.302;2022-12-20T07:56:20;100011.00;;;2.09;100.00
40315;BME280;26021;45.640;11.302;2022-12-20T07:58:48;100009.78;;;2.15;100.00
40315;BME280;26021;45.640;11.302;2022-12-20T08:01:16;100016.56;;;2.19;100.00
40315;BME280;26021;45.640;11.302;2022-12-20T08:03:45;100003.19;;;2.36;100.00
40315;BME280;26021;45.640;11.302;2022-12-20T08:06:12;100004.97;;;2.36;100.00
40315;BME280;26021;45.640;11.302;2022-12-20T08:08:43;100002.63;;;2.31;100.00
40315;BME280;26021;45.640;11.302;2022-12-20T08:11:11;99965.69;;;2.03;100.00
40315;BME280;26021;45.640;11.302;2022-12-20T08:13:38;99957.38;;;2.23;100.00
40315;BME280;26021;45.640;11.302;2022-12-20T08:16:04;99904.06;;;1.89;100.00
40315;BME280;26021;45.640;11.302;2022-12-20T08:18:30;99982.97;;;2.49;100.00
40315;BME280;26021;45.640;11.302;2022-12-20T08:20:56;99979.78;;;2.44;100.00
40315;BME280;26021;45.640;11.302;2022-12-20T08:23:21;100000.16;;;2.42;100.00
40315;BME280;26021;45.640;11.302;2022-12-20T08:25:47;99788.25;;;1.44;100.00
40315;BME280;26021;45.640;11.302;2022-12-20T08:28:12;99907.16;;;1.96;100.00
40315;BME280;26021;45.640;11.302;2022-12-20T08:30:38;100003.19;;;2.36;100.00
40315;BME280;26021;45.640;11.302;2022-12-20T08:33:03;99956.34;;;2.11;100.00
40315;BME280;26021;45.640;11.302;2022-12-20T08:35:30;100007.25;;;2.69;100.00
40315;BME280;26021;45.640;11.302;2022-12-20T08:37:55;99879.06;;;2.09;100.00
40315;BME280;26021;45.640;11.302;2022-12-20T08:40:21;99998.81;;;2.49;100.00
40315;BME280;26021;45.640;11.302;2022-12-20T08:42:46;100006.56;;;2.38;100.00
40315;BME280;26021;45.640;11.302;2022-12-20T08:45:12;99995.63;;;2.44;100.00
40315;BME280;26021;45.640;11.302;2022-12-20T08:47:38;100000.34;;;2.39;100.00
40315;BME280;26021;45.640;11.302;2022-12-20T08:50:04;99987.69;;;2.44;100.00
40315;BME280;26021;45.640;11.302;2022-12-20T08:52:30;99997.13;;;2.75;100.00
40315;BME280;26021;45.640;11.302;2022-12-20T08:54:55;99954.22;;;2.72;100.00
40315;BME280;26021;45.640;11.302;2022-12-20T08:57:21;99994.53;;;3.15;100.00
40315;BME280;26021;45.640;11.302;2022-12-20T08:59:46;99979.34;;;2.92;100.00
40315;BME280;26021;45.640;11.302;2022-12-20T09:02:12;100006.81;;;3.16;100.00
40315;BME280;26021;45.640;11.302;2022-12-20T09:04:37;99995.41;;;3.28;100.00
40315;BME280;26021;45.640;11.302;2022-12-20T09:07:03;100000.47;;;3.18;100.00
40315;BME280;26021;45.640;11.302;2022-12-20T09:09:28;99940.66;;;2.91;100.00
40315;BME280;26021;45.640;11.302;2022-12-20T09:11:54;99915.09;;;2.64;100.00
40315;BME280;26021;45.640;11.302;2022-12-20T09:14:19;99969.06;;;3.14;100.00
40315;BME280;26021;45.640;11.302;2022-12-20T09:16:45;100008.94;;;3.24;100.00
40315;BME280;26021;45.640;11.302;2022-12-20T09:19:12;100021.38;;;3.48;100.00
40315;BME280;26021;45.640;11.302;2022-12-20T09:21:38;100008.69;;;3.54;100.00
40315;BME280;26021;45.640;11.302;2022-12-20T09:24:04;100008.16;;;3.48;100.00
40315;BME280;26021;45.640;11.302;2022-12-20T09:26:30;99975.44;;;3.37;100.00
40315;BME280;26021;45.640;11.302;2022-12-20T09:28:57;100008.47;;;3.57;100.00
40315;BME280;26021;45.640;11.302;2022-12-20T09:31:24;100003.50;;;3.65;100.00
40315;BME280;26021;45.640;11.302;2022-12-20T09:33:55;100012.38;;;3.64;100.00
40315;BME280;26021;45.640;11.302;2022-12-20T09:36:23;99999.59;;;3.70;100.00
40315;BME280;26021;45.640;11.302;2022-12-20T09:38:49;99996.88;;;3.85;100.00
40315;BME280;26021;45.640;11.302;2022-12-20T09:41:39;99988.94;;;3.85;100.00
40315;BME280;26021;45.640;11.302;2022-12-20T09:46:43;99945.41;;;3.63;100.00
40315;BME280;26021;45.640;11.302;2022-12-20T09:49:14;99984.44;;;4.23;100.00
40315;BME280;26021;45.640;11.302;2022-12-20T10:00:17;99972.78;;;4.13;100.00
40315;BME280;26021;45.640;11.302;2022-12-20T10:02:43;99947.75;;;3.80;100.00
40315;BME280;26021;45.640;11.302;2022-12-20T10:08:21;99978.72;;;4.17;100.00
40315;BME280;26021;45.640;11.302;2022-12-20T10:11:28;99963.56;;;4.19;100.00
40315;BME280;26021;45.640;11.302;2022-12-20T10:16:44;99962.84;;;4.17;100.00
40315;BME280;26021;45.640;11.302;2022-12-20T10:24:31;99934.41;;;4.31;100.00
40315;BME280;26021;45.640;11.302;2022-12-20T10:27:11;99925.38;;;4.70;100.00
40315;BME280;26021;45.640;11.302;2022-12-20T10:29:38;99904.66;;;4.28;100.00
40315;BME280;26021;45.640;11.302;2022-12-20T10:32:11;99872.19;;;4.13;100.00
40315;BME280;26021;45.640;11.302;2022-12-20T10:34:37;99903.13;;;4.36;100.00
40315;BME280;26021;45.640;11.302;2022-12-20T10:37:15;99911.91;;;4.50;100.00
40315;BME280;26021;45.640;11.302;2022-12-20T10:39:46;99914.03;;;4.44;100.00
40315;BME280;26021;45.640;11.302;2022-12-20T10:44:54;99914.66;;;4.72;100.00
40315;BME280;26021;45.640;11.302;2022-12-20T10:47:39;99904.84;;;4.85;100.00
40315;BME280;26021;45.640;11.302;2022-12-20T10:50:18;99905.38;;;5.01;100.00
40315;BME280;26021;45.640;11.302;2022-12-20T10:52:45;99905.09;;;4.93;100.00
40315;BME280;26021;45.640;11.302;2022-12-20T11:00:41;99893.84;;;5.14;100.00
40315;BME280;26021;45.640;11.302;2022-12-20T11:05:38;99828.09;;;4.84;100.00
40315;BME280;26021;45.640;11.302;2022-12-20T11:08:16;99803.09;;;4.64;100.00
40315;BME280;26021;45.640;11.302;2022-12-20T11:10:42;99878.38;;;5.54;100.00
40315;BME280;26021;45.640;11.302;2022-12-20T11:13:19;99869.06;;;5.37;100.00
40315;BME280;26021;45.640;11.302;2022-12-20T11:15:49;99865.94;;;5.43;100.00
40315;BME280;26021;45.640;11.302;2022-12-20T11:18:30;99831.50;;;5.08;100.00
40315;BME280;26021;45.640;11.302;2022-12-20T11:35:13;99816.38;;;5.43;100.00
40315;BME280;26021;45.640;11.302;2022-12-20T11:52:04;99804.31;;;5.51;100.00
40315;BME280;26021;45.640;11.302;2022-12-20T11:54:41;99810.31;;;5.64;100.00
40315;BME280;26021;45.640;11.302;2022-12-20T11:57:27;99789.47;;;5.59;98.87
40315;BME280;26021;45.640;11.302;2022-12-20T11:59:57;99802.31;;;5.86;98.02
40315;BME280;26021;45.640;11.302;2022-12-20T12:05:21;99777.25;;;5.79;93.09
40315;BME280;26021;45.640;11.302;2022-12-20T12:07:52;99791.97;;;5.72;93.37
40315;BME280;26021;45.640;11.302;2022-12-20T12:10:24;99781.34;;;5.83;94.22
40315;BME280;26021;45.640;11.302;2022-12-20T12:13:06;99779.66;;;5.82;93.54
40315;BME280;26021;45.640;11.302;2022-12-20T12:18:20;99791.84;;;5.73;92.91
40315;BME280;26021;45.640;11.302;2022-12-20T12:26:38;99775.47;;;5.68;89.94
40315;BME280;26021;45.640;11.302;2022-12-20T12:29:12;99723.63;;;5.08;90.45
40315;BME280;26021;45.640;11.302;2022-12-20T12:31:43;99717.72;;;5.38;90.50
40315;BME280;26021;45.640;11.302;2022-12-20T12:35:04;99764.09;;;5.78;89.45
40315;BME280;26021;45.640;11.302;2022-12-20T12:37:13;99768.44;;;6.01;89.27
40315;BME280;26021;45.640;11.302;2022-12-20T12:40:22;99773.13;;;5.86;88.60
40315;BME280;26021;45.640;11.302;2022-12-20T12:44:19;99759.13;;;6.07;87.33
40315;BME280;26021;45.640;11.302;2022-12-20T12:48:45;99756.44;;;6.18;89.03
40315;BME280;26021;45.640;11.302;2022-12-20T12:51:24;99731.41;;;6.20;88.39
40315;BME280;26021;45.640;11.302;2022-12-20T12:53:54;99758.28;;;6.06;89.39
40315;BME280;26021;45.640;11.302;2022-12-20T13:01:48;99754.41;;;5.88;94.54
40315;BME280;26021;45.640;11.302;2022-12-20T13:06:55;99744.16;;;5.94;93.89
40315;BME280;26021;45.640;11.302;2022-12-20T13:11:55;99748.16;;;6.00;95.69
40315;BME280;26021;45.640;11.302;2022-12-20T13:25:00;99740.94;;;5.68;97.84
40315;BME280;26021;45.640;11.302;2022-12-20T13:27:38;99746.50;;;5.65;98.83
40315;BME280;26021;45.640;11.302;2022-12-20T13:32:55;99738.53;;;5.65;98.31
40315;BME280;26021;45.640;11.302;2022-12-20T13:40:49;99735.13;;;5.97;100.00
40315;BME280;26021;45.640;11.302;2022-12-20T13:45:50;99730.09;;;5.71;100.00
40315;BME280;26021;45.640;11.302;2022-12-20T13:48:21;99699.44;;;5.67;99.60
40315;BME280;26021;45.640;11.302;2022-12-20T13:50:54;99683.13;;;5.40;100.00
40315;BME280;26021;45.640;11.302;2022-12-20T13:53:22;99728.28;;;5.72;100.00
40315;BME280;26021;45.640;11.302;2022-12-20T13:55:49;99732.25;;;5.78;100.00
40315;BME280;26021;45.640;11.302;2022-12-20T13:58:26;99681.59;;;5.26;100.00
40315;BME280;26021;45.640;11.302;2022-12-20T14:00:53;99712.50;;;5.59;100.00
40315;BME280;26021;45.640;11.302;2022-12-20T14:03:29;99662.53;;;5.10;100.00
40315;BME280;26021;45.640;11.302;2022-12-20T14:06:03;99661.94;;;5.06;100.00
40315;BME280;26021;45.640;11.302;2022-12-20T14:08:31;99729.31;;;5.37;100.00
40315;BME280;26021;45.640;11.302;2022-12-20T14:13:40;99727.75;;;5.35;100.00
40315;BME280;26021;45.640;11.302;2022-12-20T14:16:15;99708.47;;;5.22;100.00
40315;BME280;26021;45.640;11.302;2022-12-20T14:18:47;99724.72;;;5.39;100.00
40315;BME280;26021;45.640;11.302;2022-12-20T14:21:13;99693.03;;;5.04;100.00
40315;BME280;26021;45.640;11.302;2022-12-20T14:23:41;99716.53;;;4.98;100.00
40315;BME280;26021;45.640;11.302;2022-12-20T14:26:16;99627.34;;;4.41;100.00
40315;BME280;26021;45.640;11.302;2022-12-20T14:28:45;99639.41;;;4.56;100.00
40315;BME280;26021;45.640;11.302;2022-12-20T14:31:37;99691.94;;;4.62;100.00
40315;BME280;26021;45.640;11.302;2022-12-20T14:34:15;99714.00;;;4.96;100.00
40315;BME280;26021;45.640;11.302;2022-12-20T14:36:43;99708.22;;;4.91;100.00
40315;BME280;26021;45.640;11.302;2022-12-20T14:39:22;99704.94;;;4.76;100.00
40315;BME280;26021;45.640;11.302;2022-12-20T14:42:11;99707.47;;;4.78;100.00
40315;BME280;26021;45.640;11.302;2022-12-20T14:44:37;99695.19;;;4.66;100.00
40315;BME280;26021;45.640;11.302;2022-12-20T14:47:24;99680.34;;;4.52;100.00
40315;BME280;26021;45.640;11.302;2022-12-20T14:49:55;99673.59;;;4.48;100.00
40315;BME280;26021;45.640;11.302;2022-12-20T14:57:25;99711.09;;;4.66;100.00
40315;BME280;26021;45.640;11.302;2022-12-20T15:18:42;99706.34;;;4.12;100.00
40315;BME280;26021;45.640;11.302;2022-12-20T15:21:12;99703.22;;;4.07;100.00
40315;BME280;26021;45.640;11.302;2022-12-20T15:23:45;99695.47;;;3.93;100.00
40315;BME280;26021;45.640;11.302;2022-12-20T15:26:14;99699.72;;;4.06;100.00
40315;BME280;26021;45.640;11.302;2022-12-20T15:28:40;99698.09;;;3.93;100.00
40315;BME280;26021;45.640;11.302;2022-12-20T15:31:09;99703.06;;;3.97;100.00